Time;durP1;ratioP1;P1;durP2;ratioP2;P2;SDS_P1;SDS_P2;PMS_P1;PMS_P2;Temp;Humidity;BMP_temperature;BMP_pressure;BME280_temperature;BME280_humidity;BME280_pressure;Samples;Min_cycle;Max_cycle;Signal;HPM_P1;HPM_P2
2022/10/19 00:00:10;;;;;;;18.73;16.50;;;17.40;81.70;;;;;;10980600;32;20053;-71
2022/10/19 00:06:34;;;;;;;23.45;17.70;;;17.40;81.80;;;;;;10981483;32;20045;-72
2022/10/19 00:12:37;;;;;;;21.02;17.98;;;17.30;81.70;;;;;;10982267;32;20077;-72
2022/10/19 00:18:42;;;;;;;23.77;16.40;;;17.30;81.70;;;;;;10968602;32;20347;-73
2022/10/19 00:24:44;;;;;;;20.75;15.63;;;17.30;81.90;;;;;;10864757;27;20336;-73
2022/10/19 00:30:47;;;;;;;26.35;18.58;;;17.30;82.00;;;;;;10823209;33;20059;-73
2022/10/19 00:36:49;;;;;;;22.58;16.30;;;17.30;81.80;;;;;;10826166;33;20024;-73
2022/10/19 00:42:55;;;;;;;23.05;16.40;;;17.20;81.70;;;;;;10812814;33;20028;-73
2022/10/19 00:49:03;;;;;;;24.17;15.88;;;17.10;81.70;;;;;;10825933;33;20015;-73
2022/10/19 00:55:07;;;;;;;25.35;16.02;;;17.10;81.80;;;;;;10809689;33;20035;-73
2022/10/19 01:01:12;;;;;;;19.62;14.23;;;17.10;81.90;;;;;;10821526;33;20040;-73
2022/10/19 01:07:14;;;;;;;19.58;13.88;;;17.10;81.80;;;;;;10825449;33;20024;-73
2022/10/19 01:13:49;;;;;;;17.00;11.68;;;17.00;81.90;;;;;;10808033;33;20074;-73
2022/10/19 01:20:33;;;;;;;20.67;14.95;;;16.90;82.00;;;;;;10824412;32;20348;-73
2022/10/19 01:26:45;;;;;;;26.87;16.55;;;16.90;81.90;;;;;;10811839;33;20024;-73
2022/10/19 01:32:54;;;;;;;24.63;18.42;;;16.90;81.90;;;;;;10824789;33;20012;-73
2022/10/19 01:39:22;;;;;;;26.73;16.83;;;16.90;82.10;;;;;;10824524;33;20024;-73
2022/10/19 01:45:32;;;;;;;23.70;15.27;;;16.80;82.10;;;;;;10824466;33;20058;-73
2022/10/19 01:52:42;;;;;;;27.25;18.15;;;16.80;82.10;;;;;;10824374;33;20040;-73
2022/10/19 01:58:45;;;;;;;24.30;19.37;;;16.80;82.10;;;;;;10822127;32;20031;-73
2022/10/19 02:04:49;;;;;;;20.45;14.70;;;16.80;82.10;;;;;;10825688;32;20094;-73
2022/10/19 02:10:53;;;;;;;20.37;13.18;;;16.80;82.10;;;;;;10825409;32;20040;-73
2022/10/19 02:17:03;;;;;;;16.23;10.50;;;16.80;82.10;;;;;;10825183;32;20032;-73
2022/10/19 02:23:06;;;;;;;17.90;10.20;;;16.60;82.20;;;;;;10823041;32;20055;-73
2022/10/19 02:29:10;;;;;;;16.75;10.25;;;16.60;82.20;;;;;;10815711;32;20306;-72
2022/10/19 02:35:13;;;;;;;12.40;9.00;;;16.60;82.10;;;;;;10829666;32;20047;-73
2022/10/19 02:41:36;;;;;;;15.75;10.00;;;16.50;82.10;;;;;;10825359;32;20024;-73
2022/10/19 02:47:48;;;;;;;14.80;8.38;;;16.50;82.00;;;;;;10829424;33;20348;-73
2022/10/19 02:53:50;;;;;;;12.13;7.97;;;16.40;82.10;;;;;;10829421;33;20039;-73
2022/10/19 02:59:52;;;;;;;13.65;9.77;;;16.30;82.10;;;;;;10828954;33;20028;-73
2022/10/19 03:05:54;;;;;;;14.85;8.52;;;16.30;82.20;;;;;;10828807;33;20027;-73
2022/10/19 03:11:56;;;;;;;15.57;9.77;;;16.20;82.20;;;;;;10815494;33;20223;-73
2022/10/19 03:17:58;;;;;;;25.55;18.00;;;16.20;82.20;;;;;;10828409;33;20023;-73
2022/10/19 03:24:00;;;;;;;28.25;19.65;;;16.30;82.20;;;;;;10825629;32;20020;-73
2022/10/19 03:30:02;;;;;;;21.33;11.65;;;16.30;82.20;;;;;;10828302;33;20019;-73
2022/10/19 03:36:21;;;;;;;21.33;16.50;;;16.20;82.10;;;;;;10828102;33;20021;-73
2022/10/19 03:42:23;;;;;;;16.17;12.03;;;16.20;82.10;;;;;;10826066;32;20031;-73
2022/10/19 03:48:25;;;;;;;15.20;9.93;;;16.20;82.40;;;;;;10827698;33;20312;-73
2022/10/19 03:54:27;;;;;;;21.67;12.93;;;16.20;82.40;;;;;;10827470;33;20340;-73
2022/10/19 04:00:29;;;;;;;14.00;10.68;;;16.10;82.30;;;;;;10826993;33;20028;-72
2022/10/19 04:06:37;;;;;;;16.05;11.57;;;16.20;82.30;;;;;;10827271;33;20028;-73
2022/10/19 04:12:39;;;;;;;15.13;11.10;;;16.00;82.30;;;;;;10827571;33;20419;-72
2022/10/19 04:18:41;;;;;;;14.93;9.52;;;16.00;82.30;;;;;;10822602;33;20400;-72
2022/10/19 04:24:43;;;;;;;12.73;9.80;;;16.00;82.30;;;;;;10826513;33;20047;-72
2022/10/19 04:30:45;;;;;;;16.67;10.25;;;15.90;82.30;;;;;;10826490;33;20054;-73
2022/10/19 04:36:47;;;;;;;18.30;10.73;;;15.80;82.40;;;;;;10826403;33;20335;-72
2022/10/19 04:42:49;;;;;;;12.00;8.20;;;15.80;82.40;;;;;;10826120;33;20328;-72
2022/10/19 04:48:51;;;;;;;16.30;11.05;;;15.80;82.30;;;;;;10812763;33;20034;-72
2022/10/19 04:54:53;;;;;;;16.87;12.50;;;15.70;82.40;;;;;;10824975;32;20335;-73
2022/10/19 05:00:55;;;;;;;10.20;8.02;;;15.70;82.30;;;;;;10825392;33;20024;-72
2022/10/19 05:07:01;;;;;;;13.93;8.93;;;15.70;82.50;;;;;;10825435;33;20372;-72
2022/10/19 05:13:03;;;;;;;21.45;13.35;;;15.60;82.40;;;;;;10812161;33;20042;-72
2022/10/19 05:19:05;;;;;;;17.20;13.30;;;15.50;82.50;;;;;;10820815;33;20035;-72
2022/10/19 05:25:07;;;;;;;14.45;9.85;;;15.50;82.50;;;;;;10823251;33;20035;-72
2022/10/19 05:31:17;;;;;;;15.95;10.15;;;15.60;82.50;;;;;;10824792;33;20392;-72
2022/10/19 05:37:20;;;;;;;19.23;14.93;;;15.60;82.40;;;;;;10824476;33;20020;-73
2022/10/19 05:43:22;;;;;;;27.17;17.10;;;15.50;82.40;;;;;;10824656;33;20042;-72
2022/10/19 05:49:41;;;;;;;15.82;11.55;;;15.50;82.70;;;;;;10820302;33;20042;-73
2022/10/19 05:55:44;;;;;;;14.18;9.40;;;15.50;82.90;;;;;;10811061;33;20423;-73
2022/10/19 06:01:47;;;;;;;24.23;15.82;;;15.50;82.80;;;;;;10824216;32;20051;-72
2022/10/19 06:07:49;;;;;;;20.92;13.62;;;15.60;82.90;;;;;;10817243;32;20043;-72
2022/10/19 06:13:54;;;;;;;17.73;11.85;;;15.60;82.90;;;;;;10797628;32;20038;-72
2022/10/19 06:19:56;;;;;;;17.45;10.20;;;15.60;82.90;;;;;;10855002;32;20044;-72
2022/10/19 06:25:58;;;;;;;12.88;10.05;;;15.50;82.90;;;;;;10830180;33;20372;-72
2022/10/19 06:32:00;;;;;;;21.33;11.43;;;15.50;82.90;;;;;;10829470;33;20054;-72
2022/10/19 06:38:04;;;;;;;19.00;10.70;;;15.50;82.90;;;;;;10829494;33;20047;-72
2022/10/19 06:44:08;;;;;;;13.73;9.38;;;15.50;82.80;;;;;;10829463;33;20035;-72
2022/10/19 06:50:19;;;;;;;15.70;8.82;;;15.60;82.70;;;;;;10826826;33;20050;-71
2022/10/19 06:56:23;;;;;;;18.60;14.10;;;15.70;82.90;;;;;;10827139;33;20020;-71
2022/10/19 07:02:25;;;;;;;13.45;8.52;;;15.70;82.80;;;;;;10828891;33;20062;-71
2022/10/19 07:08:29;;;;;;;16.70;8.93;;;15.80;82.70;;;;;;10828816;33;20046;-71
2022/10/19 07:14:37;;;;;;;13.48;8.95;;;15.80;82.70;;;;;;10827104;32;20024;-72
2022/10/19 07:20:39;;;;;;;17.35;11.07;;;15.90;82.70;;;;;;10828514;32;20031;-71
2022/10/19 07:26:41;;;;;;;14.55;8.35;;;16.00;82.60;;;;;;10828540;33;20380;-72
2022/10/19 07:32:43;;;;;;;17.62;9.52;;;16.00;82.60;;;;;;10828197;33;20028;-71
2022/10/19 07:38:45;;;;;;;18.52;12.02;;;16.20;82.70;;;;;;10828045;33;20423;-71
2022/10/19 07:44:48;;;;;;;33.83;23.38;;;16.20;82.50;;;;;;10823683;33;20431;-71
2022/10/19 07:50:50;;;;;;;27.33;18.67;;;16.30;82.40;;;;;;10827111;33;20016;-71
2022/10/19 07:56:52;;;;;;;21.80;13.15;;;16.40;82.30;;;;;;10827449;33;20024;-72
2022/10/19 08:02:54;;;;;;;25.65;13.32;;;16.40;82.20;;;;;;10827119;33;20047;-76
2022/10/19 08:08:56;;;;;;;24.73;15.32;;;16.50;82.00;;;;;;10827170;33;20046;-76
2022/10/19 08:14:58;;;;;;;28.62;19.02;;;16.70;81.90;;;;;;10826615;33;20325;-77
2022/10/19 08:21:01;;;;;;;32.78;21.90;;;16.80;81.90;;;;;;10823562;27;214448;-76
2022/10/19 08:27:04;;;;;;;31.37;22.35;;;16.80;81.80;;;;;;10825265;32;20036;-72
2022/10/19 08:33:07;;;;;;;31.80;22.02;;;16.90;81.70;;;;;;10826364;33;20312;-72
2022/10/19 08:39:11;;;;;;;31.77;20.92;;;17.10;81.60;;;;;;10796610;33;20055;-72
2022/10/19 08:45:41;;;;;;;24.40;16.90;;;17.20;81.50;;;;;;10789394;33;20040;-71
2022/10/19 08:51:52;;;;;;;23.08;15.25;;;17.30;81.40;;;;;;10775838;33;20029;-72
2022/10/19 08:58:25;;;;;;;21.20;14.32;;;17.40;81.10;;;;;;10788653;33;20430;-72
2022/10/19 09:04:37;;;;;;;26.45;17.37;;;17.60;81.00;;;;;;10788427;33;20029;-71
2022/10/19 09:10:41;;;;;;;20.85;13.57;;;17.70;80.90;;;;;;10775310;33;20024;-71
2022/10/19 09:16:45;;;;;;;21.95;15.70;;;17.80;80.70;;;;;;10788430;33;20037;-72
2022/10/19 09:22:59;;;;;;;24.95;19.35;;;17.90;80.50;;;;;;10788177;33;20054;-73
2022/10/19 09:29:12;;;;;;;24.12;19.00;;;18.10;80.30;;;;;;10786797;33;20055;-73
2022/10/19 09:35:23;;;;;;;19.33;15.90;;;18.20;80.00;;;;;;10787749;33;20435;-72
2022/10/19 09:41:26;;;;;;;28.20;15.85;;;18.40;79.70;;;;;;10823670;33;20040;-72
2022/10/19 09:47:36;;;;;;;20.70;16.45;;;18.60;79.60;;;;;;10977146;32;20083;-72
2022/10/19 09:53:54;;;;;;;25.83;15.77;;;18.80;79.20;;;;;;11017166;32;20066;-72
2022/10/19 09:59:57;;;;;;;24.63;15.07;;;18.90;78.90;;;;;;11017280;32;20346;-72
2022/10/19 10:06:13;;;;;;;16.98;12.57;;;19.10;78.60;;;;;;11013077;32;20413;-72
2022/10/19 10:12:15;;;;;;;20.62;13.35;;;19.20;78.30;;;;;;11017143;32;20019;-72
2022/10/19 10:18:18;;;;;;;22.35;15.77;;;19.40;78.00;;;;;;11011841;32;20019;-72
2022/10/19 10:24:31;;;;;;;18.30;14.98;;;19.50;77.80;;;;;;11003288;32;20389;-74
2022/10/19 10:30:36;;;;;;;24.83;16.73;;;19.80;77.30;;;;;;11016852;32;20037;-73
2022/10/19 10:36:38;;;;;;;22.60;14.98;;;19.90;76.90;;;;;;11013265;32;20052;-72
2022/10/19 10:42:55;;;;;;;16.20;12.82;;;20.10;76.50;;;;;;11016412;32;20025;-73
2022/10/19 10:49:06;;;;;;;20.50;16.25;;;20.30;76.30;;;;;;11006316;32;20034;-73
2022/10/19 10:55:15;;;;;;;22.23;13.95;;;20.50;75.20;;;;;;10792415;33;20033;-73
2022/10/19 11:01:21;;;;;;;27.20;18.70;;;20.90;74.90;;;;;;10792375;33;20059;-78
2022/10/19 11:07:34;;;;;;;24.65;12.98;;;21.20;74.10;;;;;;10791819;33;20062;-78
2022/10/19 11:14:07;;;;;;;18.17;13.02;;;21.50;73.10;;;;;;10792280;33;20038;-78
2022/10/19 11:20:15;;;;;;;20.17;12.65;;;21.80;72.60;;;;;;10804558;32;20074;-76
2022/10/19 11:26:39;;;;;;;18.23;13.07;;;22.00;72.10;;;;;;10862141;32;20054;-76
2022/10/19 11:33:35;;;;;;;19.50;13.45;;;22.10;71.40;;;;;;10865569;32;20050;-78
2022/10/19 11:39:56;;;;;;;14.90;10.05;;;22.20;71.00;;;;;;10849842;32;20055;-73
2022/10/19 11:46:22;;;;;;;26.10;16.92;;;22.20;70.40;;;;;;10860560;32;20031;-73
2022/10/19 11:52:59;;;;;;;18.30;13.18;;;22.30;70.20;;;;;;10865314;32;20046;-72
2022/10/19 11:59:14;;;;;;;18.55;12.63;;;22.30;70.00;;;;;;10864358;32;20028;-73
2022/10/19 12:05:18;;;;;;;14.85;10.00;;;22.40;69.90;;;;;;10864118;32;20020;-73
2022/10/19 12:11:48;;;;;;;19.37;13.13;;;22.40;69.60;;;;;;10860003;32;20035;-73
2022/10/19 12:17:53;;;;;;;12.55;9.32;;;22.30;69.30;;;;;;10859892;32;20023;-73
2022/10/19 12:23:58;;;;;;;14.35;10.45;;;22.40;69.00;;;;;;10863703;32;20028;-72
2022/10/19 12:30:06;;;;;;;17.67;10.55;;;22.40;68.90;;;;;;10863538;32;20396;-72
2022/10/19 12:36:27;;;;;;;22.35;15.45;;;22.40;68.80;;;;;;10863325;32;20032;-73
2022/10/19 12:42:38;;;;;;;15.38;11.43;;;22.40;68.10;;;;;;10861914;32;20046;-73
2022/10/19 12:48:40;;;;;;;11.45;9.02;;;22.30;67.90;;;;;;10849777;32;20340;-73
2022/10/19 12:54:43;;;;;;;12.13;9.38;;;22.30;67.90;;;;;;10862760;32;20024;-72
2022/10/19 13:00:58;;;;;;;15.10;11.02;;;22.30;67.80;;;;;;10862564;32;20019;-74
2022/10/19 13:07:09;;;;;;;13.40;9.50;;;22.40;67.50;;;;;;10835999;32;20392;-73
2022/10/19 13:20:15;;;;;;;11.82;7.97;;;22.70;66.70;;;;;;10826612;32;20035;-73
2022/10/19 13:26:34;;;;;;;12.07;8.70;;;22.70;66.40;;;;;;10826067;32;20032;-73
2022/10/19 13:32:56;;;;;;;13.93;8.70;;;22.70;65.70;;;;;;10825595;32;20050;-72
2022/10/19 13:38:58;;;;;;;10.00;7.78;;;22.80;65.70;;;;;;10825490;32;20040;-72
2022/10/19 13:45:00;;;;;;;10.27;7.60;;;22.80;65.60;;;;;;10825179;32;20028;-71
2022/10/19 13:51:19;;;;;;;10.95;7.25;;;22.90;65.50;;;;;;10822284;33;20036;-73
2022/10/19 13:57:56;;;;;;;11.13;6.47;;;23.00;64.40;;;;;;10791737;33;20051;-73
2022/10/19 14:04:32;;;;;;;8.98;6.37;;;23.20;63.60;;;;;;10807037;33;20012;-71
2022/10/19 14:10:35;;;;;;;9.93;6.68;;;23.20;63.80;;;;;;10812003;32;20426;-71
2022/10/19 14:17:18;;;;;;;12.82;6.07;;;23.20;64.00;;;;;;10791763;33;20032;-70
2022/10/19 14:23:24;;;;;;;11.77;7.30;;;23.30;63.50;;;;;;10831769;32;20055;-75
2022/10/19 14:29:26;;;;;;;12.23;7.40;;;23.40;63.40;;;;;;10868768;32;20027;-75
2022/10/19 14:35:51;;;;;;;12.30;8.60;;;23.40;63.20;;;;;;10869154;32;20023;-76
2022/10/19 14:41:54;;;;;;;18.02;6.95;;;23.40;63.20;;;;;;10868798;32;20324;-77
2022/10/19 14:48:17;;;;;;;13.27;7.95;;;23.50;63.50;;;;;;10869789;32;20057;-77
2022/10/19 14:54:39;;;;;;;8.95;6.43;;;23.50;63.60;;;;;;10871253;32;20089;-75
2022/10/19 15:00:48;;;;;;;8.43;5.72;;;23.50;63.50;;;;;;10833060;32;20024;-77
2022/10/19 15:07:46;;;;;;;8.98;5.95;;;23.50;63.70;;;;;;10829176;33;20020;-77
2022/10/19 15:13:54;;;;;;;10.90;6.37;;;24.20;62.70;;;;;;10821150;33;20035;-76
2022/10/19 15:19:59;;;;;;;11.35;6.82;;;24.90;60.90;;;;;;10828973;33;20054;-76
2022/10/19 15:26:27;;;;;;;8.85;5.35;;;25.60;60.10;;;;;;10825423;32;20023;-77
2022/10/19 15:32:35;;;;;;;13.25;7.22;;;25.80;59.80;;;;;;10829270;33;20423;-76
2022/10/19 15:38:37;;;;;;;9.00;5.62;;;24.80;62.10;;;;;;10814113;33;20054;-77
2022/10/19 15:44:42;;;;;;;9.10;5.75;;;24.00;63.80;;;;;;10827211;33;20435;-77
2022/10/19 15:50:47;;;;;;;8.15;6.25;;;23.50;65.00;;;;;;10828004;33;20024;-76
2022/10/19 15:56:51;;;;;;;12.13;6.45;;;23.20;65.70;;;;;;10814614;33;20074;-77
2022/10/19 16:02:53;;;;;;;9.55;6.22;;;22.90;66.30;;;;;;10827388;33;20032;-77
2022/10/19 16:08:57;;;;;;;9.98;5.95;;;22.50;66.90;;;;;;10827047;33;20391;-76
2022/10/19 16:14:59;;;;;;;11.65;6.93;;;22.20;67.60;;;;;;10822995;33;20020;-76
2022/10/19 16:21:01;;;;;;;14.35;9.05;;;21.90;68.00;;;;;;10828109;27;20059;-77
2022/10/19 16:27:04;;;;;;;9.05;6.47;;;21.80;68.50;;;;;;10826616;33;20024;-77
2022/10/19 16:33:06;;;;;;;11.05;7.05;;;21.50;68.80;;;;;;10826418;33;20024;-77
2022/10/19 16:39:09;;;;;;;9.55;7.20;;;21.40;69.10;;;;;;10812947;33;20054;-77
2022/10/19 16:45:11;;;;;;;15.93;7.55;;;21.20;69.40;;;;;;10825943;33;20275;-77
2022/10/19 16:51:22;;;;;;;10.63;7.75;;;21.10;69.60;;;;;;10825707;32;20020;-77
2022/10/19 16:57:24;;;;;;;15.00;6.30;;;21.00;69.80;;;;;;10821689;33;20062;-78
2022/10/19 17:03:29;;;;;;;13.13;9.07;;;20.90;69.90;;;;;;10812198;33;20344;-78
2022/10/19 17:09:31;;;;;;;11.07;7.18;;;20.80;70.10;;;;;;10825275;33;20020;-78
2022/10/19 17:15:37;;;;;;;11.35;7.85;;;20.70;70.40;;;;;;10825144;33;20442;-78
2022/10/19 17:21:40;;;;;;;11.38;7.30;;;20.60;70.50;;;;;;10812070;33;20067;-78
2022/10/19 17:27:43;;;;;;;10.88;6.72;;;20.60;70.60;;;;;;10824940;33;20027;-78
2022/10/19 17:33:49;;;;;;;13.27;9.70;;;20.50;70.80;;;;;;10821197;33;20047;-78
2022/10/19 17:39:56;;;;;;;18.77;11.82;;;20.40;71.00;;;;;;10824506;33;20028;-78
2022/10/19 17:46:04;;;;;;;13.52;9.57;;;20.40;71.10;;;;;;10811412;33;20020;-78
2022/10/19 17:52:06;;;;;;;18.73;14.48;;;20.30;71.20;;;;;;10822096;33;20059;-78
2022/10/19 17:58:07;;;;;;;20.20;13.75;;;20.30;71.40;;;;;;10824827;32;20399;-78
2022/10/19 18:04:16;;;;;;;22.87;14.38;;;20.30;71.60;;;;;;10830758;33;20039;-78
2022/10/19 18:10:18;;;;;;;22.17;14.93;;;20.20;71.70;;;;;;10830097;32;20036;-78
2022/10/19 18:16:29;;;;;;;19.48;13.10;;;20.10;72.00;;;;;;10830427;33;20074;-78
2022/10/19 18:22:31;;;;;;;17.42;12.95;;;20.00;72.10;;;;;;10830791;33;20343;-78
2022/10/19 18:28:33;;;;;;;17.15;12.23;;;19.90;72.10;;;;;;10830146;33;20020;-78
2022/10/19 18:41:11;;;;;;;26.12;12.43;;;19.80;72.60;;;;;;10829720;33;20050;-78
2022/10/19 18:47:13;;;;;;;20.48;11.60;;;19.70;73.00;;;;;;10829296;33;20324;-77
2022/10/19 18:53:16;;;;;;;17.77;12.32;;;19.60;73.40;;;;;;10829454;33;20050;-77
2022/10/19 18:59:18;;;;;;;19.35;15.40;;;19.60;73.50;;;;;;10828386;33;20027;-77
2022/10/19 19:05:21;;;;;;;22.45;12.37;;;19.50;73.80;;;;;;10828855;33;20063;-77
2022/10/19 19:11:25;;;;;;;17.27;13.70;;;19.50;73.90;;;;;;10827890;32;20016;-77
2022/10/19 19:17:29;;;;;;;29.30;17.10;;;19.40;74.30;;;;;;10824694;33;20036;-78
2022/10/19 19:23:32;;;;;;;19.08;14.60;;;19.30;74.60;;;;;;10825865;33;20020;-77
2022/10/19 19:29:34;;;;;;;23.42;16.30;;;19.30;74.80;;;;;;10828581;33;20024;-77
2022/10/19 19:35:44;;;;;;;18.77;12.75;;;19.30;75.10;;;;;;10815951;33;20042;-77
2022/10/19 19:41:47;;;;;;;18.83;12.50;;;19.10;75.50;;;;;;10828307;33;20359;-77
2022/10/19 19:47:50;;;;;;;15.15;10.38;;;19.10;76.20;;;;;;10829552;33;20414;-78
2022/10/19 19:53:52;;;;;;;21.95;12.65;;;19.00;76.50;;;;;;10814763;33;20340;-77
2022/10/19 20:00:23;;;;;;;17.05;12.20;;;19.00;76.70;;;;;;10827674;33;20027;-77
2022/10/19 20:06:45;;;;;;;17.23;11.57;;;18.90;76.40;;;;;;10818481;33;20036;-76
2022/10/19 20:12:47;;;;;;;23.98;18.00;;;18.90;76.70;;;;;;10812213;33;20043;-78
2022/10/19 20:18:54;;;;;;;22.62;16.33;;;18.80;76.60;;;;;;10826866;33;20067;-77
2022/10/19 20:24:56;;;;;;;25.55;14.80;;;18.80;76.80;;;;;;10827095;32;20016;-77
2022/10/19 20:31:07;;;;;;;20.83;15.13;;;18.80;77.00;;;;;;10827291;33;20404;-77
2022/10/19 20:37:22;;;;;;;24.85;15.50;;;18.70;77.20;;;;;;10826802;33;20246;-77
2022/10/19 20:43:24;;;;;;;25.58;19.17;;;18.70;77.60;;;;;;10826311;33;20336;-77
2022/10/19 20:49:26;;;;;;;22.95;17.12;;;18.60;77.80;;;;;;10826134;33;20120;-77
2022/10/19 20:55:28;;;;;;;23.67;19.40;;;18.60;77.60;;;;;;10826084;33;20021;-77
2022/10/19 21:01:32;;;;;;;26.85;17.15;;;18.50;77.60;;;;;;10825669;33;20254;-77
2022/10/19 21:07:34;;;;;;;25.20;17.25;;;18.50;77.50;;;;;;10825649;33;20389;-76
2022/10/19 21:13:36;;;;;;;25.15;18.65;;;18.50;77.50;;;;;;10812295;33;20008;-77
2022/10/19 21:19:38;;;;;;;22.50;13.62;;;18.50;77.80;;;;;;10824068;33;20050;-76
2022/10/19 21:25:50;;;;;;;25.98;16.83;;;18.50;77.70;;;;;;10812050;33;20020;-77
2022/10/19 21:31:53;;;;;;;27.77;19.92;;;18.40;77.80;;;;;;10825069;33;20020;-77
2022/10/19 21:37:55;;;;;;;22.25;17.12;;;18.40;77.80;;;;;;10824545;33;20016;-77
2022/10/19 21:43:59;;;;;;;29.98;20.42;;;18.40;77.90;;;;;;10824782;33;20032;-77
2022/10/19 21:50:01;;;;;;;19.65;13.80;;;18.30;78.10;;;;;;10824582;33;20305;-76
2022/10/19 21:56:03;;;;;;;24.05;16.70;;;18.30;78.20;;;;;;10824464;33;20047;-76
2022/10/19 22:02:05;;;;;;;19.30;15.35;;;18.30;78.30;;;;;;10824157;33;20028;-77
2022/10/19 22:08:07;;;;;;;20.05;14.87;;;18.20;78.20;;;;;;10824271;33;20024;-77
2022/10/19 22:14:11;;;;;;;25.05;15.05;;;18.20;78.30;;;;;;10810875;33;20016;-77
2022/10/19 22:20:13;;;;;;;27.40;16.25;;;18.20;78.30;;;;;;10823747;32;20025;-77
2022/10/19 22:26:18;;;;;;;26.55;17.30;;;18.10;78.50;;;;;;10823575;33;20016;-77
2022/10/19 22:32:20;;;;;;;21.48;16.70;;;18.10;78.60;;;;;;10823403;33;20050;-76
2022/10/19 22:38:22;;;;;;;26.37;17.30;;;18.10;78.70;;;;;;10823402;33;20046;-77
2022/10/19 22:44:24;;;;;;;25.85;20.42;;;18.00;78.90;;;;;;10820032;32;20055;-77
2022/10/19 22:50:26;;;;;;;30.95;19.25;;;17.90;79.10;;;;;;10829614;33;20016;-76
2022/10/19 22:56:29;;;;;;;18.33;14.63;;;17.90;79.30;;;;;;10829437;33;20047;-76
2022/10/19 23:02:35;;;;;;;22.67;16.62;;;17.90;79.20;;;;;;10828601;33;20024;-77
2022/10/19 23:08:37;;;;;;;30.35;19.02;;;17.80;79.30;;;;;;10826941;33;20074;-77
2022/10/19 23:14:39;;;;;;;22.25;17.20;;;17.70;79.70;;;;;;10828890;33;20039;-77
2022/10/19 23:20:41;;;;;;;23.55;16.45;;;17.70;79.80;;;;;;10815890;32;20121;-77
2022/10/19 23:26:43;;;;;;;24.70;17.50;;;17.70;79.90;;;;;;10813801;32;20020;-76
2022/10/19 23:32:45;;;;;;;19.42;13.50;;;17.80;79.90;;;;;;10824476;33;20047;-76
2022/10/19 23:38:50;;;;;;;20.58;14.95;;;17.70;80.00;;;;;;10825285;33;20320;-76
2022/10/19 23:44:52;;;;;;;15.25;9.90;;;17.70;80.30;;;;;;10878630;32;20039;-76
2022/10/19 23:51:03;;;;;;;19.60;13.85;;;17.60;80.10;;;;;;10827815;33;20008;-77
2022/10/19 23:57:05;;;;;;;17.12;13.02;;;17.50;80.10;;;;;;10827090;32;20310;-76
